Good Hope, IL

9:31 AM CDT on September 26, 2016 (GMT -0500)
Macomb Municipal

Weather History for KMQB - November, 2011

Change the Weather History Date:

Saturday, November 12, 2011

  Actual Average (KBRL) Record (KBRL)
Temperature  
Mean Temperature 52 °F 44 °F  
Max Temperature 63 °F 54 °F 75 °F (1902)
Min Temperature 42 °F 35 °F 9 °F (1986)
Degree Days  
Heating Degree Days 12 21  
Month to date heating degree days 218  
Since 1 July heating degree days 612  
Cooling Degree Days 0 0  
Month to date cooling degree days 0  
Year to date cooling degree days 1206  
Growing Degree Days 2 (Base 50)    
Moisture  
Dew Point 36 °F    
Average Humidity 57    
Maximum Humidity 76    
Minimum Humidity 34    
Precipitation  
Precipitation 0.00 in 0.08 in 0.71 in (1988)
Month to date precipitation 1.03  
Year to date precipitation 34.92  
Sea Level Pressure  
Sea Level Pressure 29.75 in    
Wind  
Wind Speed 11 mph (South)    
Max Wind Speed 22 mph    
Max Gust Speed 28 mph    
Visibility 10 miles    
Events      
T = Trace of Precipitation, MM = Missing Value Source: NWS Daily Summary

Daily Weather History Graph

Daily Weather History Graph

Search for Another Location

Airport or City:

Trip Planner

Search our weather history database for the weather conditions in past years. The results will help you decide how hot, cold, wet, or windy it might be!

Date:

Astronomy

Nov. 12, 2011 Rise Set
Actual Time 6:45 AM CST 4:47 PM CST
Civil Twilight 6:16 AM CST 5:16 PM CST
Nautical Twilight 5:43 AM CST 5:49 PM CST
Astronomical Twilight 5:11 AM CST 6:21 PM CST
Moon 6:03 PM CST (11/12) 8:28 AM CST (11/12)
Length of Visible Light 11h 00m
Length of Day
10h 02m
Full, 97% of the Moon is Illuminated
Nov 12
Full
Nov 18
Last Quarter
Nov 25
New
Dec 2
First Quarter
Dec 10
Full

Hourly Weather History & Observations

Time (CST) Temp. Windchill Dew Point Humidity Pressure Visibility Wind Dir Wind Speed Gust Speed Precip Events Conditions
12:15 AM 42.8 °F 38.0 °F 35.1 °F 74% 29.80 in 10.0 mi SW 8.1 mph - N/A   Clear
12:35 AM 43.0 °F 38.2 °F 35.2 °F 74% 29.80 in 10.0 mi SW 8.1 mph - N/A   Clear
12:55 AM 43.5 °F 38.3 °F 35.6 °F 74% 29.80 in 10.0 mi SW 9.2 mph - N/A   Clear
1:15 AM 43.2 °F 37.9 °F 35.6 °F 75% 29.80 in 10.0 mi SW 9.2 mph - N/A   Clear
1:35 AM 43.9 °F 38.8 °F 35.6 °F 73% 29.80 in 10.0 mi SW 9.2 mph - N/A   Clear
1:55 AM 43.3 °F 38.6 °F 35.6 °F 74% 29.80 in 10.0 mi SW 8.1 mph - N/A   Clear
2:15 AM 42.3 °F 37.3 °F 34.9 °F 75% 29.80 in 10.0 mi SW 8.1 mph - N/A   Clear
2:35 AM 43.2 °F 37.9 °F 35.6 °F 75% 29.80 in 10.0 mi SW 9.2 mph - N/A   Clear
2:55 AM 43.0 °F 38.2 °F 35.6 °F 75% 29.80 in 10.0 mi SW 8.1 mph - N/A   Clear
3:15 AM 43.3 °F 38.6 °F 35.6 °F 74% 29.79 in 10.0 mi SW 8.1 mph - N/A   Clear
3:35 AM 42.8 °F 38.0 °F 35.6 °F 76% 29.80 in 10.0 mi SW 8.1 mph - N/A   Clear
3:55 AM 42.8 °F 38.0 °F 35.6 °F 76% 29.80 in 10.0 mi SW 8.1 mph - N/A   Clear
4:15 AM 42.6 °F 37.2 °F 35.6 °F 76% 29.80 in 10.0 mi SW 9.2 mph - N/A   Clear
4:35 AM 43.7 °F 38.6 °F 36.0 °F 74% 29.80 in 10.0 mi SSW 9.2 mph - N/A   Clear
4:55 AM 43.9 °F 38.8 °F 35.8 °F 73% 29.80 in 10.0 mi SSW 9.2 mph - N/A   Clear
5:15 AM 43.7 °F 37.7 °F 35.8 °F 74% 29.81 in 10.0 mi SSW 11.5 mph - N/A   Clear
5:35 AM 44.6 °F 38.8 °F 35.6 °F 71% 29.80 in 10.0 mi SSW 11.5 mph - N/A   Clear
5:55 AM 44.6 °F 39.2 °F 35.6 °F 71% 29.80 in 10.0 mi SSW 10.4 mph - N/A   Clear
6:15 AM 44.6 °F 38.8 °F 35.1 °F 69% 29.82 in 10.0 mi SSW 11.5 mph - N/A   Clear
6:35 AM 44.6 °F 39.7 °F 35.6 °F 71% 29.81 in 10.0 mi SSW 9.2 mph - N/A   Clear
6:55 AM 43.5 °F 38.3 °F 34.7 °F 71% 29.81 in 10.0 mi South 9.2 mph - N/A   Clear
7:15 AM 43.2 °F 37.9 °F 34.9 °F 73% 29.81 in 10.0 mi South 9.2 mph - N/A   Clear
7:35 AM 44.4 °F 39.0 °F 35.4 °F 71% 29.81 in 10.0 mi South 10.4 mph - N/A   Clear
7:55 AM 45.0 °F 39.7 °F 35.4 °F 69% 29.82 in 10.0 mi South 10.4 mph - N/A   Clear
8:15 AM 46.6 °F - 35.4 °F 65% 29.82 in 10.0 mi South 12.7 mph - N/A   Clear
8:35 AM 47.8 °F - 36.0 °F 63% 29.81 in 10.0 mi South 13.8 mph - N/A   Clear
8:55 AM 50.0 °F - 35.6 °F 58% 29.81 in 10.0 mi South 11.5 mph - N/A   Clear
9:15 AM 50.7 °F - 36.3 °F 58% 29.81 in 10.0 mi South 12.7 mph - N/A   Clear
9:35 AM 53.2 °F - 35.8 °F 52% 29.81 in 10.0 mi South 10.4 mph - N/A   Clear
9:55 AM 54.0 °F - 35.2 °F 49% 29.81 in 10.0 mi SSW 12.7 mph 20.7 mph N/A   Clear
10:15 AM 54.5 °F - 34.9 °F 48% 29.81 in 10.0 mi SSW 11.5 mph - N/A   Clear
10:35 AM 56.5 °F - 36.1 °F 47% 29.80 in 10.0 mi South 11.5 mph 20.7 mph N/A   Clear
10:55 AM 57.9 °F - 36.0 °F 44% 29.80 in 10.0 mi SSW 12.7 mph 18.4 mph N/A   Clear
11:15 AM 58.6 °F - 34.5 °F 40% 29.79 in 10.0 mi South 17.3 mph 21.9 mph N/A   Clear
11:35 AM 59.0 °F - 35.6 °F 42% 29.77 in 10.0 mi South 12.7 mph - N/A   Clear
11:55 AM 62.2 °F - 35.4 °F 37% 29.75 in 10.0 mi South 17.3 mph - N/A   Clear
12:15 PM 61.9 °F - 33.8 °F 35% 29.74 in 10.0 mi South 15.0 mph 20.7 mph N/A   Clear
12:35 PM 62.8 °F - 33.6 °F 34% 29.73 in 10.0 mi South 12.7 mph 23.0 mph N/A   Clear
12:55 PM 61.5 °F - 34.5 °F 36% 29.71 in 10.0 mi South 15.0 mph 19.6 mph N/A   Clear
1:15 PM 63.7 °F - 35.4 °F 35% 29.70 in 10.0 mi South 17.3 mph - N/A   Clear
1:35 PM 63.5 °F - 35.1 °F 35% 29.69 in 10.0 mi South 19.6 mph 24.2 mph N/A   Clear
1:55 PM 63.7 °F - 35.6 °F 35% 29.67 in 10.0 mi SSE 19.6 mph 25.3 mph N/A   Clear
2:15 PM 62.6 °F - 36.3 °F 38% 29.67 in 10.0 mi South 16.1 mph 24.2 mph N/A   Clear
2:35 PM 62.8 °F - 36.1 °F 37% 29.67 in 10.0 mi South 17.3 mph 27.6 mph N/A   Clear
2:55 PM 62.2 °F - 35.6 °F 37% 29.65 in 10.0 mi South 20.7 mph 25.3 mph N/A   Clear
3:15 PM 61.2 °F - 36.1 °F 39% 29.65 in 10.0 mi South 13.8 mph 18.4 mph N/A   Clear
3:35 PM 60.8 °F - 35.4 °F 39% 29.64 in 10.0 mi South 16.1 mph 19.6 mph N/A   Clear
3:55 PM 61.0 °F - 34.3 °F 37% 29.63 in 10.0 mi South 18.4 mph 23.0 mph N/A   Clear
4:15 PM 59.7 °F - 35.6 °F 41% 29.63 in 10.0 mi SSE 13.8 mph 23.0 mph N/A   Clear
4:35 PM 57.9 °F - 37.9 °F 47% 29.62 in 10.0 mi SSE 18.4 mph 21.9 mph N/A   Clear
4:55 PM 56.7 °F - 37.8 °F 49% 29.62 in 10.0 mi SSE 17.3 mph 25.3 mph N/A   Clear
5:15 PM 55.8 °F - 37.6 °F 51% 29.62 in 10.0 mi SSE 17.3 mph - N/A   Clear
5:35 PM 55.8 °F - 37.4 °F 50% 29.62 in 10.0 mi South 18.4 mph 23.0 mph N/A   Clear
5:55 PM 55.4 °F - 37.4 °F 51% 29.62 in 10.0 mi South 21.9 mph 27.6 mph N/A   Clear
6:15 PM 54.9 °F - 37.4 °F 52% 29.62 in 10.0 mi South 19.6 mph 26.5 mph N/A   Clear
6:35 PM 53.8 °F - 37.8 °F 55% 29.62 in 10.0 mi South 18.4 mph 25.3 mph N/A   Clear
6:55 PM 52.9 °F - 38.3 °F 58% 29.62 in 10.0 mi South 15.0 mph 21.9 mph N/A   Clear
7:15 PM 52.7 °F - 39.2 °F 60% 29.62 in 10.0 mi South 15.0 mph - N/A   Clear
7:35 PM 52.3 °F - 39.6 °F 62% 29.62 in 10.0 mi South 17.3 mph - N/A   Clear
7:55 PM 51.8 °F - 41.0 °F 67% 29.61 in 10.0 mi South 16.1 mph - N/A   Clear
8:15 PM 51.8 °F - 40.5 °F 65% 29.61 in 10.0 mi South 12.7 mph - N/A   Clear
8:35 PM 52.0 °F - 41.2 °F 67% 29.61 in 10.0 mi South 15.0 mph - N/A   Clear
8:55 PM 51.8 °F - 41.5 °F 68% 29.61 in 10.0 mi South 13.8 mph - N/A   Clear
9:15 PM 51.8 °F - 42.8 °F 71% 29.60 in 10.0 mi South 11.5 mph - N/A   Clear
9:35 PM 52.5 °F - 43.0 °F 70% 29.60 in 10.0 mi South 12.7 mph 18.4 mph N/A   Clear
9:55 PM 52.3 °F - 43.5 °F 72% 29.59 in 10.0 mi South 15.0 mph 19.6 mph N/A   Clear
10:15 PM 52.3 °F - 44.1 °F 73% 29.58 in 10.0 mi South 16.1 mph - N/A   Clear
10:35 PM 53.2 °F - 45.1 °F 74% 29.57 in 10.0 mi South 15.0 mph - N/A   Clear
10:55 PM 54.0 °F - 46.4 °F 76% 29.56 in 10.0 mi South 15.0 mph - N/A   Clear
11:15 PM 54.5 °F - 47.1 °F 76% 29.55 in 10.0 mi SSW 13.8 mph - N/A   Clear
11:35 PM 55.4 °F - 47.8 °F 76% 29.56 in 10.0 mi SSW 15.0 mph - N/A   Clear
11:55 PM 55.9 °F - 48.4 °F 76% 29.55 in 10.0 mi SSW 15.0 mph - N/A   Clear